createdAt,value
2022-11-24T00:00:33.498Z,1.02
2022-11-24T00:03:39.972Z,1.04
2022-11-24T00:06:49.454Z,1.13
2022-11-24T00:09:55.420Z,1.18
2022-11-24T00:13:02.353Z,1.15
2022-11-24T00:16:14.739Z,1.11
2022-11-24T00:19:21.883Z,1.32
2022-11-24T00:22:30.507Z,1.38
2022-11-24T00:25:38.096Z,1.47
2022-11-24T00:28:46.926Z,1.51
2022-11-24T00:31:53.942Z,1.51
2022-11-24T00:35:00.030Z,1.55
2022-11-24T00:38:09.507Z,1.56
2022-11-24T00:41:16.566Z,1.60
2022-11-24T00:44:23.324Z,1.63
2022-11-24T00:47:29.742Z,1.66
2022-11-24T00:50:36.626Z,1.72
2022-11-24T00:53:45.691Z,1.68
2022-11-24T00:56:52.627Z,1.65
2022-11-24T00:59:58.635Z,1.67
2022-11-24T01:03:05.418Z,1.72
2022-11-24T01:06:16.756Z,1.75
2022-11-24T01:09:27.167Z,1.69
2022-11-24T01:12:33.054Z,1.62
2022-11-24T01:15:40.274Z,1.60
2022-11-24T01:18:46.516Z,1.55
2022-11-24T01:21:53.562Z,1.55
2022-11-24T01:25:02.286Z,1.62
2022-11-24T01:28:09.388Z,1.61
2022-11-24T01:31:16.479Z,1.63
2022-11-24T01:34:23.393Z,1.66
2022-11-24T01:37:29.523Z,1.72
2022-11-24T01:40:38.857Z,1.76
2022-11-24T01:43:46.987Z,1.80
2022-11-24T01:47:00.860Z,1.92
2022-11-24T01:50:13.356Z,1.80
2022-11-24T01:53:20.186Z,1.86
2022-11-24T01:56:31.549Z,1.90
2022-11-24T01:59:39.652Z,1.91
2022-11-24T02:02:48.404Z,1.91
2022-11-24T02:06:07.712Z,1.95
2022-11-24T02:09:25.110Z,1.94
2022-11-24T02:12:36.548Z,2.00
2022-11-24T02:15:42.531Z,2.08
2022-11-24T02:18:50.015Z,2.10
2022-11-24T02:21:57.045Z,2.15
2022-11-24T02:25:16.810Z,2.13
2022-11-24T02:28:32.921Z,2.10
2022-11-24T02:31:39.137Z,2.12
2022-11-24T02:34:45.993Z,2.14
2022-11-24T02:37:52.176Z,2.08
2022-11-24T02:40:59.147Z,1.96
2022-11-24T02:44:08.704Z,1.92
2022-11-24T02:47:16.944Z,1.94
2022-11-24T02:50:22.935Z,1.96
2022-11-24T02:53:29.856Z,1.96
2022-11-24T02:56:35.904Z,1.96
2022-11-24T02:59:45.291Z,1.97
2022-11-24T03:02:51.421Z,2.01
2022-11-24T03:05:58.496Z,2.08
2022-11-24T03:09:04.744Z,2.13
2022-11-24T03:12:11.780Z,2.21
2022-11-24T03:15:20.442Z,2.15
2022-11-24T03:18:27.167Z,2.07
2022-11-24T03:21:33.558Z,2.05
2022-11-24T03:24:40.400Z,2.07
2022-11-24T03:27:46.952Z,2.08
2022-11-24T03:30:56.349Z,2.17
2022-11-24T03:34:02.297Z,2.23
2022-11-24T03:37:09.129Z,2.19
2022-11-24T03:40:15.884Z,2.19
2022-11-24T03:43:22.797Z,2.21
2022-11-24T03:46:31.393Z,2.17
2022-11-24T03:49:38.167Z,2.10
2022-11-24T03:52:44.058Z,2.02
2022-11-24T03:55:50.913Z,2.01
2022-11-24T03:58:56.972Z,1.96
2022-11-24T04:02:08.114Z,1.98
2022-11-24T04:05:14.141Z,2.00
2022-11-24T04:08:22.071Z,2.03
2022-11-24T04:11:40.258Z,2.10
2022-11-24T04:14:46.984Z,2.09
2022-11-24T04:18:00.604Z,2.04
2022-11-24T04:21:07.588Z,2.02
2022-11-24T04:24:13.855Z,2.01
2022-11-24T04:27:20.743Z,1.98
2022-11-24T04:30:30.739Z,1.92
2022-11-24T04:33:40.205Z,1.97
2022-11-24T04:36:46.125Z,1.99
2022-11-24T04:39:52.932Z,1.94
2022-11-24T04:42:59.188Z,1.95
2022-11-24T04:46:06.574Z,1.86
2022-11-24T04:49:15.228Z,1.99
2022-11-24T04:52:25.355Z,1.99
2022-11-24T04:55:32.381Z,1.99
2022-11-24T04:58:39.552Z,1.95
2022-11-24T05:01:45.798Z,1.94
2022-11-24T05:04:55.384Z,1.95
2022-11-24T05:08:02.756Z,1.99
2022-11-24T05:11:10.991Z,1.94
2022-11-24T05:14:16.915Z,1.99
2022-11-24T05:17:23.733Z,2.04
2022-11-24T05:20:32.253Z,2.06
2022-11-24T05:23:39.414Z,2.01
2022-11-24T05:26:47.314Z,1.98
2022-11-24T05:29:54.007Z,1.93
2022-11-24T05:33:00.387Z,1.93
2022-11-24T05:36:31.614Z,1.84
2022-11-24T05:39:38.937Z,1.90
2022-11-24T05:42:48.232Z,1.98
2022-11-24T05:45:54.317Z,1.86
2022-11-24T05:49:01.088Z,1.91
2022-11-24T05:52:10.539Z,1.74
2022-11-24T05:55:19.741Z,1.95
2022-11-24T05:58:25.606Z,1.92
2022-11-24T06:01:32.293Z,1.88
2022-11-24T06:04:38.184Z,1.83
2022-11-24T06:07:47.601Z,1.83
2022-11-24T06:10:53.587Z,1.87
2022-11-24T06:14:00.503Z,1.87
2022-11-24T06:17:09.397Z,1.93
2022-11-24T06:20:16.133Z,1.91
2022-11-24T06:23:24.586Z,1.92
2022-11-24T06:26:31.913Z,1.91
2022-11-24T06:29:40.157Z,1.90
2022-11-24T06:32:49.952Z,1.88
2022-11-24T06:35:56.075Z,1.83
2022-11-24T06:39:08.630Z,1.82
2022-11-24T06:42:18.830Z,1.85
2022-11-24T06:45:25.638Z,1.82
2022-11-24T06:48:32.629Z,1.87
2022-11-24T06:51:39.431Z,1.88
2022-11-24T06:54:47.917Z,1.87
2022-11-24T06:57:54.593Z,1.84
2022-11-24T07:01:00.465Z,1.79
2022-11-24T07:04:07.727Z,1.82
2022-11-24T07:07:13.699Z,1.77
2022-11-24T07:10:23.536Z,1.89
2022-11-24T07:13:30.477Z,1.93
2022-11-24T07:16:37.840Z,1.92
2022-11-24T07:19:43.810Z,1.93
2022-11-24T07:22:50.476Z,1.93
2022-11-24T07:26:03.715Z,1.88
2022-11-24T07:29:13.154Z,1.59
2022-11-24T07:32:19.197Z,1.65
2022-11-24T07:35:26.702Z,1.58
2022-11-24T07:38:33.301Z,1.59
2022-11-24T07:41:42.702Z,1.55
2022-11-24T07:44:48.823Z,1.61
2022-11-24T07:47:55.451Z,1.57
2022-11-24T07:51:02.958Z,1.58
2022-11-24T07:54:09.727Z,1.56
2022-11-24T07:57:18.214Z,1.45
2022-11-24T08:00:25.059Z,1.45
2022-11-24T08:03:31.102Z,1.48
2022-11-24T08:06:42.091Z,1.53
2022-11-24T08:09:52.798Z,1.54
2022-11-24T08:13:04.000Z,1.46
2022-11-24T08:16:15.198Z,1.42
2022-11-24T08:19:22.019Z,1.38
2022-11-24T08:22:27.971Z,1.42
2022-11-24T08:25:35.208Z,1.40
2022-11-24T08:28:43.899Z,1.45
2022-11-24T08:31:50.642Z,1.40
2022-11-24T08:35:13.008Z,1.34
2022-11-24T08:38:20.529Z,1.26
2022-11-24T08:41:28.204Z,1.32
2022-11-24T08:44:37.833Z,1.35
2022-11-24T08:47:43.789Z,1.37
2022-11-24T08:50:50.440Z,1.46
2022-11-24T08:53:59.013Z,1.49
2022-11-24T08:57:05.742Z,1.54
2022-11-24T09:00:22.705Z,1.55
2022-11-24T09:03:29.649Z,1.55
2022-11-24T09:06:35.529Z,1.50
2022-11-24T09:09:42.244Z,1.43
2022-11-24T09:12:48.909Z,1.32
2022-11-24T09:15:58.330Z,1.23
2022-11-24T09:19:08.268Z,1.36
2022-11-24T09:22:14.921Z,1.18
2022-11-24T09:25:21.221Z,1.43
2022-11-24T09:28:27.822Z,1.43
2022-11-24T09:31:40.343Z,1.48
2022-11-24T09:34:46.996Z,1.57
2022-11-24T09:37:52.996Z,1.63
2022-11-24T09:41:23.490Z,1.66
2022-11-24T09:45:04.832Z,1.63
2022-11-24T09:48:27.074Z,1.74
2022-11-24T09:51:37.029Z,1.63
2022-11-24T09:55:00.523Z,1.80
2022-11-24T09:58:24.776Z,1.80
2022-11-24T10:01:37.240Z,1.78
2022-11-24T10:04:50.773Z,1.58
2022-11-24T10:08:21.451Z,1.80
2022-11-24T10:11:41.616Z,1.80
2022-11-24T10:15:28.956Z,1.80
2022-11-24T10:18:53.547Z,1.80
2022-11-24T10:22:29.046Z,1.82
2022-11-24T10:25:51.332Z,1.78
2022-11-24T10:28:59.581Z,1.77
2022-11-24T10:32:18.151Z,1.79
2022-11-24T10:35:32.544Z,1.77
2022-11-24T10:38:56.574Z,1.69
2022-11-24T10:42:17.414Z,1.74
2022-11-24T10:45:25.927Z,1.82
2022-11-24T10:48:45.884Z,1.81
2022-11-24T10:52:07.275Z,1.76
2022-11-24T10:55:16.955Z,1.75
2022-11-24T10:58:34.421Z,1.74
2022-11-24T11:01:44.313Z,1.76
2022-11-24T11:04:50.311Z,1.77
2022-11-24T11:12:43.851Z,1.95
2022-11-24T11:15:51.495Z,1.91
2022-11-24T11:18:57.911Z,1.78
2022-11-24T11:22:09.389Z,2.01
2022-11-24T11:25:27.942Z,2.12
2022-11-24T11:28:37.244Z,2.15
2022-11-24T11:34:02.735Z,2.15
2022-11-24T11:35:16.388Z,2.11
2022-11-24T11:38:23.947Z,2.17
2022-11-24T11:41:38.878Z,2.20
2022-11-24T11:44:57.384Z,2.17
2022-11-24T11:48:28.569Z,2.25
2022-11-24T11:51:56.905Z,2.34
2022-11-24T11:55:36.768Z,2.39
2022-11-24T11:59:17.421Z,2.43
2022-11-24T12:03:07.456Z,2.55
2022-11-24T12:06:41.147Z,2.56
2022-11-24T12:10:11.224Z,2.47
2022-11-24T12:13:58.076Z,2.48
2022-11-24T12:17:23.187Z,2.49
2022-11-24T12:20:55.997Z,2.59
2022-11-24T12:24:20.828Z,2.56
2022-11-24T12:27:47.433Z,2.44
2022-11-24T12:31:08.834Z,2.30
2022-11-24T12:34:35.482Z,2.22
2022-11-24T12:38:08.899Z,2.22
2022-11-24T12:41:44.139Z,2.27
2022-11-24T12:45:16.040Z,2.07
2022-11-24T12:48:56.293Z,2.21
2022-11-24T12:52:22.682Z,2.22
2022-11-24T12:55:36.501Z,2.19
2022-11-24T12:58:56.772Z,1.94
2022-11-24T13:02:26.668Z,1.96
2022-11-24T13:05:47.969Z,2.00
2022-11-24T13:08:54.290Z,1.84
2022-11-24T13:12:16.775Z,1.92
2022-11-24T13:15:44.634Z,1.94
2022-11-24T13:18:58.607Z,1.94
2022-11-24T13:22:28.699Z,1.96
2022-11-24T13:25:38.130Z,1.92
2022-11-24T13:29:18.388Z,2.04
2022-11-24T13:33:25.731Z,2.02
2022-11-24T13:36:56.717Z,2.02
2022-11-24T13:41:12.987Z,2.05
2022-11-24T13:44:29.560Z,2.05
2022-11-24T13:47:47.033Z,2.04
2022-11-24T13:51:25.704Z,2.07
2022-11-24T13:54:33.002Z,2.04
2022-11-24T13:57:44.329Z,2.07
2022-11-24T14:01:13.699Z,2.06
2022-11-24T14:04:30.934Z,2.08
2022-11-24T14:07:38.667Z,2.10
2022-11-24T14:10:46.618Z,2.05
2022-11-24T14:13:53.409Z,2.04
2022-11-24T14:17:30.009Z,2.07
2022-11-24T14:20:36.884Z,2.12
2022-11-24T14:23:46.372Z,2.20
2022-11-24T14:26:54.884Z,2.21
2022-11-24T14:30:03.632Z,2.24
2022-11-24T14:33:16.198Z,2.26
2022-11-24T14:36:22.292Z,2.23
2022-11-24T14:39:31.462Z,2.29
2022-11-24T14:42:37.398Z,2.24
2022-11-24T14:45:55.369Z,2.17
2022-11-24T14:49:05.612Z,2.21
2022-11-24T14:52:20.838Z,2.22
2022-11-24T14:55:31.595Z,2.23
2022-11-24T14:58:42.174Z,2.17
2022-11-24T15:01:48.944Z,2.20
2022-11-24T15:05:04.698Z,2.08
2022-11-24T15:08:18.529Z,2.21
2022-11-24T15:11:25.814Z,2.28
2022-11-24T15:14:55.203Z,2.35
2022-11-24T15:18:04.360Z,2.39
2022-11-24T15:21:19.302Z,2.43
2022-11-24T15:24:27.459Z,2.44
2022-11-24T15:27:33.554Z,2.46
2022-11-24T15:30:41.508Z,2.38
2022-11-24T15:33:47.592Z,2.54
2022-11-24T15:36:57.089Z,2.59
2022-11-24T15:40:03.138Z,2.63
2022-11-24T15:43:30.700Z,2.41
2022-11-24T15:46:38.708Z,2.53
2022-11-24T15:49:45.896Z,2.46
2022-11-24T15:52:54.930Z,2.44
2022-11-24T15:56:05.512Z,2.44
2022-11-24T15:59:20.636Z,2.48
2022-11-24T16:02:29.271Z,2.57
2022-11-24T16:05:36.740Z,2.48
2022-11-24T16:08:46.475Z,2.44
2022-11-24T16:11:52.583Z,2.37
2022-11-24T16:14:59.489Z,2.47
2022-11-24T16:18:07.058Z,2.49
2022-11-24T16:21:15.607Z,2.50
2022-11-24T16:24:24.624Z,2.53
2022-11-24T16:27:31.720Z,2.53
2022-11-24T16:30:38.386Z,2.57
2022-11-24T16:33:45.205Z,2.61
2022-11-24T16:36:51.206Z,2.67
2022-11-24T16:40:02.636Z,2.71
2022-11-24T16:43:08.768Z,2.76
2022-11-24T16:46:23.808Z,2.81
2022-11-24T16:49:29.970Z,2.81
2022-11-24T16:52:37.047Z,2.80
2022-11-24T16:55:45.729Z,2.74
2022-11-24T16:58:52.762Z,2.77
2022-11-24T17:02:00.327Z,2.73
2022-11-24T17:05:07.743Z,2.69
2022-11-24T17:08:13.743Z,2.68
2022-11-24T17:11:26.953Z,2.67
2022-11-24T17:14:33.404Z,2.70
2022-11-24T17:18:01.330Z,2.74
2022-11-24T17:21:09.694Z,2.78
2022-11-24T17:24:18.311Z,2.75
2022-11-24T17:27:26.850Z,2.76
2022-11-24T17:30:33.765Z,2.77
2022-11-24T17:33:40.647Z,2.85
2022-11-24T17:36:47.469Z,2.86
2022-11-24T17:40:12.849Z,2.78
2022-11-24T17:43:23.081Z,2.68
2022-11-24T17:46:31.378Z,2.62
2022-11-24T17:49:38.411Z,2.62
2022-11-24T17:52:44.460Z,2.56
2022-11-24T17:55:52.442Z,2.56
2022-11-24T17:59:03.773Z,2.62
2022-11-24T18:02:12.926Z,2.72
2022-11-24T18:05:19.434Z,2.76
2022-11-24T18:08:26.988Z,2.85
2022-11-24T18:11:35.062Z,2.61
2022-11-24T18:14:44.992Z,2.82
2022-11-24T18:17:55.473Z,2.90
2022-11-24T18:21:04.810Z,2.89
2022-11-24T18:24:12.190Z,2.94
2022-11-24T18:27:21.783Z,2.95
2022-11-24T18:30:30.737Z,2.91
2022-11-24T18:33:40.796Z,2.93
2022-11-24T18:36:52.191Z,2.88
2022-11-24T18:39:59.501Z,2.87
2022-11-24T18:43:05.695Z,2.80
2022-11-24T18:46:18.772Z,2.75
2022-11-24T18:49:25.083Z,2.85
2022-11-24T18:52:32.185Z,2.80
2022-11-24T18:55:39.251Z,2.84
2022-11-24T18:58:47.806Z,2.86
2022-11-24T19:01:56.760Z,2.88
2022-11-24T19:05:03.832Z,2.86
2022-11-24T19:08:09.995Z,2.90
2022-11-24T19:11:22.501Z,2.86
2022-11-24T19:14:28.846Z,2.81
2022-11-24T19:17:38.299Z,2.83
2022-11-24T19:20:44.333Z,2.84
2022-11-24T19:23:51.278Z,2.84
2022-11-24T19:26:57.422Z,2.86
2022-11-24T19:30:04.279Z,2.86
2022-11-24T19:33:14.104Z,2.89
2022-11-24T19:36:24.837Z,2.87
2022-11-24T19:39:31.128Z,2.88
2022-11-24T19:42:38.756Z,2.83
2022-11-24T19:45:45.217Z,2.81
2022-11-24T19:48:57.318Z,2.77
2022-11-24T19:52:03.307Z,2.78
2022-11-24T19:55:11.678Z,2.74
2022-11-24T19:58:18.201Z,2.74
2022-11-24T20:01:28.473Z,2.74
2022-11-24T20:04:39.979Z,2.80
2022-11-24T20:07:46.970Z,2.81
2022-11-24T20:10:53.104Z,2.70
2022-11-24T20:14:02.299Z,2.80
2022-11-24T20:17:08.603Z,2.92
2022-11-24T20:20:19.597Z,2.95
2022-11-24T20:23:25.989Z,3.02
2022-11-24T20:26:36.826Z,3.04
2022-11-24T20:29:47.064Z,3.04
2022-11-24T20:32:54.071Z,3.08
2022-11-24T20:36:06.478Z,3.08
2022-11-24T20:39:19.093Z,3.13
2022-11-24T20:42:25.227Z,3.10
2022-11-24T20:45:32.221Z,3.06
2022-11-24T20:48:40.661Z,3.03
2022-11-24T20:51:55.033Z,2.84
2022-11-24T20:55:04.082Z,2.90
2022-11-24T20:58:11.578Z,2.81
2022-11-24T21:01:22.105Z,2.81
2022-11-24T21:04:30.714Z,2.82
2022-11-24T21:11:08.669Z,2.79
2022-11-24T21:14:16.152Z,2.71
2022-11-24T21:17:23.683Z,2.60
2022-11-24T21:20:30.289Z,2.46
2022-11-24T21:23:37.860Z,2.41
2022-11-24T21:26:51.906Z,2.41
2022-11-24T21:29:58.840Z,2.35
2022-11-24T21:33:05.583Z,2.38
2022-11-24T21:36:14.807Z,2.23
2022-11-24T21:39:21.031Z,2.07
2022-11-24T21:42:30.948Z,1.98
2022-11-24T21:45:40.004Z,1.95
2022-11-24T21:48:47.161Z,1.73
2022-11-24T21:51:56.175Z,1.84
2022-11-24T21:55:03.844Z,1.77
2022-11-24T21:58:12.468Z,1.82
2022-11-24T22:01:22.489Z,1.81
2022-11-24T22:04:28.585Z,1.80
2022-11-24T22:07:35.918Z,1.80
2022-11-24T22:10:41.980Z,1.82
2022-11-24T22:13:53.274Z,1.77
2022-11-24T22:16:59.306Z,1.79
2022-11-24T22:20:06.316Z,1.80
2022-11-24T22:23:12.314Z,1.84
2022-11-24T22:26:21.985Z,1.89
2022-11-24T22:29:30.459Z,1.89
2022-11-24T22:32:40.650Z,1.89
2022-11-24T22:35:46.650Z,1.92
2022-11-24T22:38:57.707Z,1.91
2022-11-24T22:42:03.643Z,1.89
2022-11-24T22:45:14.290Z,1.84
2022-11-24T22:48:20.299Z,1.78
2022-11-24T22:51:31.450Z,1.76
2022-11-24T22:54:37.619Z,1.75
2022-11-24T22:57:48.084Z,1.75
2022-11-24T23:00:57.214Z,1.75
2022-11-24T23:04:05.342Z,1.73
2022-11-24T23:07:11.438Z,1.79
2022-11-24T23:10:18.436Z,1.86
2022-11-24T23:13:24.397Z,1.90
2022-11-24T23:16:34.369Z,1.97
2022-11-24T23:19:40.323Z,2.01
2022-11-24T23:22:47.107Z,2.02
2022-11-24T23:25:53.078Z,1.97
2022-11-24T23:28:59.905Z,1.91
2022-11-24T23:32:09.276Z,1.90
2022-11-24T23:35:15.941Z,1.93
2022-11-24T23:38:21.885Z,1.95
2022-11-24T23:41:29.290Z,1.96
2022-11-24T23:44:35.591Z,1.98
2022-11-24T23:47:45.163Z,2.03
2022-11-24T23:50:51.190Z,2.07
2022-11-24T23:53:58.727Z,2.04
2022-11-24T23:57:04.645Z,2.02
